Time;durP1;ratioP1;P1;durP2;ratioP2;P2;SDS_P1;SDS_P2;PMS_P1;PMS_P2;Temp;Humidity;BMP_temperature;BMP_pressure;BME280_temperature;BME280_humidity;BME280_pressure;Samples;Min_cycle;Max_cycle;Signal;HPM_P1;HPM_P2
2024/04/13 00:00:04;;;;;;;;;;;12.40;99.90;;;;;;5488303;26;20006;-73
2024/04/13 00:02:32;;;;;;;3.38;1.35;;;12.40;99.90;;;;;;5487378;26;19924;-74
2024/04/13 00:04:58;;;;;;;6.72;2.08;;;12.40;99.90;;;;;;5487348;26;20225;-74
2024/04/13 00:07:24;;;;;;;;;;;12.40;99.90;;;;;;5486059;26;20006;-73
2024/04/13 00:09:50;;;;;;;4.10;2.13;;;12.40;99.90;;;;;;5487452;26;19924;-74
2024/04/13 00:12:15;;;;;;;;;;;12.40;99.90;;;;;;5485923;26;20026;-74
2024/04/13 00:14:41;;;;;;;7.05;2.38;;;12.40;99.90;;;;;;5485460;26;19931;-74
2024/04/13 00:17:07;;;;;;;;;;;12.50;99.90;;;;;;5487855;26;20009;-73
2024/04/13 00:19:35;;;;;;;6.43;2.70;;;12.60;99.90;;;;;;5487151;26;19931;-74
2024/04/13 00:22:01;;;;;;;8.20;2.45;;;12.70;99.90;;;;;;5487243;26;20034;-73
2024/04/13 00:24:27;;;;;;;8.50;2.00;;;12.80;99.90;;;;;;5486994;26;20009;-74
2024/04/13 00:26:53;;;;;;;;;;;12.90;99.90;;;;;;5487442;26;19998;-73
2024/04/13 00:29:19;;;;;;;4.05;2.40;;;12.90;99.90;;;;;;5486968;26;19924;-73
2024/04/13 00:31:44;;;;;;;;;;;13.00;99.90;;;;;;5485537;26;20013;-73
2024/04/13 00:34:10;;;;;;;5.28;3.05;;;13.00;99.90;;;;;;5486848;26;20013;-73
2024/04/13 00:36:35;;;;;;;;;;;13.10;99.90;;;;;;5487657;26;20335;-73
2024/04/13 00:39:04;;;;;;;4.60;2.45;;;13.10;99.90;;;;;;5486724;26;19959;-73
2024/04/13 00:41:30;;;;;;;11.05;2.60;;;13.10;99.90;;;;;;5484824;26;20032;-74
2024/04/13 00:43:59;;;;;;;5.13;2.50;;;13.00;99.90;;;;;;5484518;26;19998;-73
2024/04/13 00:46:26;;;;;;;9.57;2.58;;;13.10;99.90;;;;;;5484674;26;20003;-73
2024/04/13 00:48:53;;;;;;;9.70;3.53;;;13.20;99.90;;;;;;5484872;26;20303;-73
2024/04/13 00:51:23;;;;;;;4.22;2.22;;;13.30;99.90;;;;;;5486438;26;20010;-73
2024/04/13 00:53:49;;;;;;;7.03;2.08;;;13.30;99.90;;;;;;5484917;26;20013;-73
2024/04/13 00:56:14;;;;;;;;;;;13.30;99.90;;;;;;5487313;26;20082;-74
2024/04/13 00:58:42;;;;;;;6.38;2.65;;;13.30;99.90;;;;;;5484432;26;19924;-74
2024/04/13 01:01:10;;;;;;;6.35;2.28;;;13.20;99.90;;;;;;5486187;26;20087;-74
2024/04/13 01:03:38;;;;;;;7.55;2.17;;;13.10;99.90;;;;;;5484513;26;20002;-74
2024/04/13 01:06:06;;;;;;;5.95;2.05;;;13.00;99.90;;;;;;5486523;26;20040;-73
2024/04/13 01:08:34;;;;;;;7.68;2.00;;;12.90;99.90;;;;;;5486266;26;20125;-73
2024/04/13 01:11:01;;;;;;;4.57;2.28;;;12.90;99.90;;;;;;5484453;26;20009;-73
2024/04/13 01:13:26;;;;;;;8.93;2.63;;;12.90;99.90;;;;;;5486381;26;20013;-74
2024/04/13 01:15:52;;;;;;;;;;;13.00;99.90;;;;;;5486687;26;19998;-74
2024/04/13 01:18:18;;;;;;;6.78;2.40;;;13.00;99.90;;;;;;5484351;26;19931;-75
2024/04/13 01:20:44;;;;;;;6.45;2.30;;;13.00;99.90;;;;;;5486285;26;20002;-74
2024/04/13 01:23:11;;;;;;;;;;;12.90;99.90;;;;;;5486942;26;20017;-73
2024/04/13 01:25:40;;;;;;;4.82;2.22;;;12.80;99.90;;;;;;5484304;26;19931;-73
2024/04/13 01:28:06;;;;;;;5.80;2.58;;;12.70;99.90;;;;;;5484085;26;20427;-74
2024/04/13 01:30:34;;;;;;;4.82;2.47;;;12.60;99.90;;;;;;5485978;26;20339;-73
2024/04/13 01:33:00;;;;;;;5.35;2.45;;;12.50;99.90;;;;;;5485844;26;20042;-73
2024/04/13 01:35:25;;;;;;;;;;;12.50;99.90;;;;;;5486747;26;20557;-73
2024/04/13 01:37:51;;;;;;;7.47;3.03;;;12.40;99.90;;;;;;5484076;26;19924;-73
2024/04/13 01:40:16;;;;;;;;;;;12.30;99.90;;;;;;5484620;26;20121;-73
2024/04/13 01:42:42;;;;;;;4.82;2.35;;;12.20;99.90;;;;;;5486113;26;19931;-73
2024/04/13 01:45:11;;;;;;;10.18;2.90;;;12.20;99.90;;;;;;5485950;26;20002;-74
2024/04/13 01:47:37;;;;;;;7.95;3.30;;;12.10;99.90;;;;;;5485740;26;19998;-74
2024/04/13 01:50:03;;;;;;;;;;;12.10;99.90;;;;;;5486599;26;20009;-76
2024/04/13 01:52:29;;;;;;;7.43;3.13;;;12.00;99.90;;;;;;5485583;26;19952;-73
2024/04/13 01:54:56;;;;;;;7.50;3.38;;;12.00;99.90;;;;;;5485172;26;20006;-75
2024/04/13 01:57:21;;;;;;;8.35;3.30;;;12.00;99.90;;;;;;5484654;26;20012;-73
2024/04/13 01:59:47;;;;;;;;;;;12.00;99.90;;;;;;5484291;26;19998;-75
2024/04/13 02:02:13;;;;;;;7.97;3.08;;;12.00;99.90;;;;;;5485395;26;20725;-74
2024/04/13 02:04:39;;;;;;;11.00;3.75;;;11.90;99.90;;;;;;5485757;26;20017;-74
2024/04/13 02:07:05;;;;;;;;;;;11.90;99.90;;;;;;5484328;26;20067;-76
2024/04/13 02:09:31;;;;;;;11.93;2.60;;;12.00;99.90;;;;;;5483600;26;20388;-73
2024/04/13 02:11:56;;;;;;;5.82;2.50;;;12.10;99.90;;;;;;5483310;26;20002;-74
2024/04/13 02:14:22;;;;;;;;;;;12.20;99.90;;;;;;5486029;26;20490;-75
2024/04/13 02:16:50;;;;;;;6.72;2.80;;;12.20;99.90;;;;;;5485148;26;19925;-73
2024/04/13 02:19:16;;;;;;;6.70;2.85;;;12.20;99.90;;;;;;5485425;26;20006;-76
2024/04/13 02:21:41;;;;;;;;;;;12.20;99.90;;;;;;5484032;26;20010;-76
2024/04/13 02:24:07;;;;;;;4.55;1.95;;;12.10;99.90;;;;;;5485358;26;19923;-74
2024/04/13 02:26:33;;;;;;;;;;;12.10;99.90;;;;;;5483891;26;19998;-76
2024/04/13 02:28:59;;;;;;;5.45;2.83;;;12.10;99.90;;;;;;5485190;26;20474;-74
2024/04/13 02:31:25;;;;;;;5.25;2.55;;;12.10;99.90;;;;;;5482850;26;20030;-74
2024/04/13 02:33:51;;;;;;;8.90;2.78;;;12.10;99.90;;;;;;5483092;26;20478;-75
2024/04/13 02:36:17;;;;;;;;;;;12.00;99.90;;;;;;5485524;26;20013;-75
2024/04/13 02:38:42;;;;;;;5.50;2.50;;;12.00;99.90;;;;;;5482848;26;19930;-74
2024/04/13 02:41:08;;;;;;;4.25;2.42;;;12.00;99.90;;;;;;5484745;26;19994;-75
2024/04/13 02:43:35;;;;;;;4.78;2.38;;;11.90;99.90;;;;;;5484575;26;20347;-75
2024/04/13 02:46:11;;;;;;;8.38;2.85;;;11.80;99.90;;;;;;5484711;26;19998;-75
2024/04/13 02:48:44;;;;;;;9.00;3.25;;;11.80;99.90;;;;;;5484485;26;20010;-75
2024/04/13 02:51:10;;;;;;;5.47;2.40;;;11.70;99.90;;;;;;5484384;26;20002;-75
2024/04/13 02:53:37;;;;;;;7.60;2.55;;;11.70;99.90;;;;;;5484432;26;20019;-75
2024/04/13 02:56:07;;;;;;;5.15;2.13;;;11.70;99.90;;;;;;5484531;26;20006;-75
2024/04/13 02:58:33;;;;;;;8.00;2.60;;;11.70;99.90;;;;;;5482533;26;20006;-75
2024/04/13 03:01:00;;;;;;;4.90;2.05;;;11.70;99.90;;;;;;5482440;26;20002;-73
2024/04/13 03:03:27;;;;;;;6.28;2.40;;;11.60;99.90;;;;;;5482443;26;20324;-74
2024/04/13 03:06:01;;;;;;;5.20;2.83;;;11.50;99.90;;;;;;5484302;26;20009;-74
2024/04/13 03:08:27;;;;;;;2.80;1.80;;;11.50;99.90;;;;;;5487647;26;20582;-75
2024/04/13 03:10:53;;;;;;;;;;;11.50;99.90;;;;;;5488574;26;20581;-75
2024/04/13 03:13:19;;;;;;;5.90;2.50;;;11.50;99.90;;;;;;5486574;26;19924;-75
2024/04/13 03:15:44;;;;;;;;;;;11.50;99.90;;;;;;5488780;26;20094;-75
2024/04/13 03:18:10;;;;;;;8.73;3.20;;;11.50;99.90;;;;;;5487838;26;19931;-74
2024/04/13 03:20:35;;;;;;;;;;;11.50;99.90;;;;;;5486709;26;20081;-77
2024/04/13 03:23:01;;;;;;;6.38;2.72;;;11.60;99.90;;;;;;5488070;26;19930;-74
2024/04/13 03:25:26;;;;;;;;;;;11.60;99.90;;;;;;5486848;26;20002;-73
2024/04/13 03:27:53;;;;;;;8.50;2.72;;;11.60;99.90;;;;;;5487958;26;19924;-77
2024/04/13 03:30:18;;;;;;;9.90;2.63;;;11.60;99.90;;;;;;5485601;26;20013;-76
2024/04/13 03:32:44;;;;;;;;;;;11.60;99.90;;;;;;5488776;26;20006;-76
2024/04/13 03:35:09;;;;;;;5.55;2.33;;;11.70;99.90;;;;;;5487836;26;20258;-74
2024/04/13 03:37:36;;;;;;;9.25;2.88;;;11.70;99.90;;;;;;5485541;26;20009;-74
2024/04/13 03:40:02;;;;;;;6.97;2.60;;;11.80;99.90;;;;;;5485675;26;20653;-76
2024/04/13 03:42:28;;;;;;;7.22;3.20;;;11.80;99.90;;;;;;5485669;26;20459;-74
2024/04/13 03:44:53;;;;;;;;;;;11.80;99.90;;;;;;5488039;26;20042;-76
2024/04/13 03:47:19;;;;;;;5.22;2.45;;;11.80;99.90;;;;;;5485644;26;20268;-75
2024/04/13 03:49:45;;;;;;;7.93;2.40;;;11.80;99.90;;;;;;5487323;26;20006;-74
2024/04/13 03:52:10;;;;;;;;;;;11.80;99.90;;;;;;5487937;26;20488;-75
2024/04/13 03:54:36;;;;;;;4.22;2.17;;;11.80;99.90;;;;;;5487370;26;19924;-75
2024/04/13 03:57:01;;;;;;;;;;;11.80;99.90;;;;;;5487854;26;19998;-75
2024/04/13 03:59:27;;;;;;;6.13;2.25;;;11.80;99.90;;;;;;5485758;26;19931;-78
2024/04/13 04:01:53;;;;;;;4.25;2.40;;;11.80;99.90;;;;;;5487589;26;20455;-76
2024/04/13 04:04:18;;;;;;;;;;;11.80;99.90;;;;;;5488121;26;20035;-76
2024/04/13 04:06:44;;;;;;;7.60;2.47;;;11.80;99.90;;;;;;5485394;26;19935;-75
2024/04/13 04:09:10;;;;;;;;;;;11.90;99.90;;;;;;5487890;26;19998;-75
2024/04/13 04:11:36;;;;;;;5.90;2.75;;;11.90;99.90;;;;;;5485250;26;19924;-75
2024/04/13 04:14:02;;;;;;;4.40;2.25;;;12.00;99.90;;;;;;5484838;26;20006;-73
2024/04/13 04:16:28;;;;;;;8.23;3.17;;;12.20;99.90;;;;;;5485174;26;20041;-75
2024/04/13 04:18:53;;;;;;;;;;;12.30;99.90;;;;;;5484862;26;19998;-75
2024/04/13 04:21:19;;;;;;;5.65;2.90;;;12.40;99.90;;;;;;5485300;26;20416;-76
2024/04/13 04:23:45;;;;;;;;;;;12.40;99.90;;;;;;5487812;26;20008;-77
2024/04/13 04:26:11;;;;;;;11.65;3.80;;;12.40;99.90;;;;;;5485067;26;19924;-73
2024/04/13 04:28:36;;;;;;;;;;;12.40;99.90;;;;;;5485683;26;19994;-76
2024/04/13 04:31:12;;;;;;;6.78;3.42;;;12.40;99.90;;;;;;5484721;26;19935;-72
2024/04/13 04:33:38;;;;;;;7.40;3.65;;;12.40;99.90;;;;;;5484988;26;20002;-73
2024/04/13 04:36:05;;;;;;;6.43;3.25;;;12.40;99.90;;;;;;5486143;26;20006;-72
2024/04/13 04:38:31;;;;;;;9.63;3.17;;;12.50;99.90;;;;;;5486672;26;20016;-75
2024/04/13 04:40:56;;;;;;;;;;;12.40;99.90;;;;;;5487185;26;20030;-75
2024/04/13 04:43:22;;;;;;;8.20;2.95;;;12.50;99.90;;;;;;5484581;26;20288;-77
2024/04/13 04:45:47;;;;;;;;;;;12.60;99.90;;;;;;5486872;26;20013;-75
2024/04/13 04:48:13;;;;;;;9.25;2.15;;;12.70;99.90;;;;;;5486734;26;19924;-75
2024/04/13 04:50:38;;;;;;;;;;;12.90;99.90;;;;;;5485199;26;20002;-74
2024/04/13 04:53:04;;;;;;;13.73;3.58;;;13.20;99.90;;;;;;5485989;26;19932;-73
2024/04/13 04:55:29;;;;;;;;;;;13.50;99.90;;;;;;5486781;26;20078;-73
2024/04/13 04:57:55;;;;;;;13.80;3.05;;;13.90;99.90;;;;;;5486074;26;19932;-73
2024/04/13 05:00:21;;;;;;;;;;;14.20;99.90;;;;;;5487090;26;19998;-73
2024/04/13 05:02:46;;;;;;;6.13;2.47;;;14.50;99.90;;;;;;5486061;26;20261;-75
2024/04/13 05:05:12;;;;;;;8.30;2.55;;;14.80;99.90;;;;;;5486419;26;20071;-73
2024/04/13 05:07:38;;;;;;;4.05;1.95;;;15.30;99.90;;;;;;5486197;26;20078;-75
2024/04/13 05:10:04;;;;;;;6.07;2.05;;;16.00;99.90;;;;;;5486250;26;20006;-76
2024/04/13 05:12:30;;;;;;;5.28;2.00;;;16.70;99.90;;;;;;5486254;26;19998;-76
2024/04/13 05:14:56;;;;;;;8.15;2.90;;;17.60;99.90;;;;;;5484338;26;20002;-73
2024/04/13 05:17:21;;;;;;;5.95;3.30;;;18.60;99.90;;;;;;5486358;26;20002;-73
2024/04/13 05:19:47;;;;;;;10.05;2.90;;;19.30;97.00;;;;;;5486072;26;19997;-73
2024/04/13 05:22:13;;;;;;;6.05;3.10;;;19.70;93.70;;;;;;5486349;26;20451;-74
2024/04/13 05:24:39;;;;;;;5.85;2.88;;;20.00;91.10;;;;;;5484626;26;20013;-73
2024/04/13 05:27:06;;;;;;;8.82;2.13;;;20.30;90.00;;;;;;5486260;26;20070;-73
2024/04/13 05:29:35;;;;;;;9.50;1.98;;;20.50;86.10;;;;;;5485858;26;20012;-73
2024/04/13 05:32:02;;;;;;;7.53;1.80;;;20.60;82.90;;;;;;5484474;26;20005;-74
2024/04/13 05:34:28;;;;;;;8.73;1.90;;;20.50;81.70;;;;;;5484310;26;20025;-74
2024/04/13 05:36:54;;;;;;;4.72;2.15;;;20.90;80.40;;;;;;5486094;26;20451;-72
2024/04/13 05:39:19;;;;;;;9.80;2.05;;;21.40;77.80;;;;;;5486131;26;20005;-73
2024/04/13 05:41:45;;;;;;;6.28;2.25;;;22.30;73.60;;;;;;5486360;26;19998;-74
2024/04/13 05:44:10;;;;;;;5.05;2.00;;;23.00;70.00;;;;;;5484080;26;20022;-76
2024/04/13 05:46:36;;;;;;;11.57;2.10;;;23.70;66.20;;;;;;5483822;26;20009;-75
2024/04/13 05:49:02;;;;;;;6.60;2.30;;;24.50;62.40;;;;;;5483603;26;20009;-76
2024/04/13 05:51:27;;;;;;;8.18;1.75;;;25.00;58.60;;;;;;5485438;26;20002;-76
2024/04/13 05:53:53;;;;;;;5.45;2.42;;;25.40;56.50;;;;;;5483626;26;20453;-76
2024/04/13 05:56:18;;;;;;;6.05;2.00;;;25.80;54.50;;;;;;5485416;26;20445;-75
2024/04/13 05:58:44;;;;;;;7.30;1.50;;;26.10;51.90;;;;;;5483548;26;20002;-76
2024/04/13 06:01:10;;;;;;;8.25;1.75;;;26.30;49.50;;;;;;5485426;26;20005;-76
2024/04/13 06:03:35;;;;;;;9.80;1.55;;;26.50;47.90;;;;;;5483492;26;20002;-75
2024/04/13 06:06:01;;;;;;;8.48;3.00;;;26.50;48.40;;;;;;5483466;26;20002;-75
2024/04/13 06:08:27;;;;;;;8.90;2.15;;;26.60;48.00;;;;;;5485185;26;20078;-73
2024/04/13 06:10:52;;;;;;;6.30;1.73;;;27.00;46.00;;;;;;5485262;26;20051;-74
2024/04/13 06:13:18;;;;;;;10.02;2.08;;;27.30;43.50;;;;;;5483422;26;20009;-73
2024/04/13 06:15:44;;;;;;;6.25;2.58;;;27.40;43.60;;;;;;5483356;26;20459;-73
2024/04/13 06:18:10;;;;;;;6.00;2.15;;;27.40;42.80;;;;;;5483324;26;19995;-75
2024/04/13 06:20:36;;;;;;;8.98;2.00;;;27.60;41.40;;;;;;5485244;26;20005;-76
2024/04/13 06:23:02;;;;;;;5.13;1.67;;;27.80;41.00;;;;;;5485221;26;20002;-74
2024/04/13 06:25:28;;;;;;;13.23;2.35;;;27.70;39.80;;;;;;5485244;26;20002;-76
2024/04/13 06:27:54;;;;;;;9.25;2.30;;;27.50;40.10;;;;;;5485198;26;20012;-74
2024/04/13 06:30:19;;;;;;;5.18;1.90;;;27.20;40.50;;;;;;5484787;26;20013;-73
2024/04/13 06:32:45;;;;;;;9.07;1.80;;;26.90;41.00;;;;;;5483577;26;20002;-75
2024/04/13 06:35:11;;;;;;;8.13;1.67;;;26.70;42.00;;;;;;5484898;26;20078;-75
2024/04/13 06:37:37;;;;;;;5.47;1.63;;;26.80;43.00;;;;;;5484692;26;19998;-75
2024/04/13 06:40:06;;;;;;;4.15;1.80;;;27.10;42.30;;;;;;5484688;26;20005;-75
2024/04/13 06:42:33;;;;;;;10.30;1.88;;;27.30;41.20;;;;;;5485646;26;20079;-74
2024/04/13 06:45:00;;;;;;;4.53;1.92;;;27.20;39.80;;;;;;5488567;26;20075;-75
2024/04/13 06:47:26;;;;;;;4.35;1.60;;;27.50;40.10;;;;;;5486606;26;20002;-75
2024/04/13 06:49:52;;;;;;;6.85;1.40;;;27.60;39.60;;;;;;5488589;26;19998;-74
2024/04/13 06:52:18;;;;;;;4.40;1.65;;;27.90;38.20;;;;;;5486212;26;20458;-76
2024/04/13 06:54:43;;;;;;;7.32;1.95;;;27.80;37.00;;;;;;5486411;26;20002;-76
2024/04/13 06:57:09;;;;;;;6.30;1.92;;;28.10;38.00;;;;;;5487886;26;20006;-76
2024/04/13 06:59:34;;;;;;;3.55;1.63;;;28.30;37.10;;;;;;5488158;26;20009;-75
2024/04/13 07:02:00;;;;;;;9.10;2.05;;;28.50;36.70;;;;;;5486160;26;20002;-74
2024/04/13 07:04:26;;;;;;;5.78;1.55;;;28.40;35.50;;;;;;5485918;26;20002;-75
2024/04/13 07:06:51;;;;;;;12.95;1.75;;;28.20;34.90;;;;;;5488173;26;20017;-74
2024/04/13 07:09:20;;;;;;;8.25;1.75;;;28.00;34.60;;;;;;5486457;26;20002;-75
2024/04/13 07:11:45;;;;;;;6.53;1.58;;;27.80;35.80;;;;;;5488253;26;20006;-75
2024/04/13 07:14:11;;;;;;;8.18;1.50;;;27.90;36.10;;;;;;5486250;26;20523;-74
2024/04/13 07:16:36;;;;;;;6.40;1.80;;;27.90;36.40;;;;;;5488243;26;20041;-75
2024/04/13 07:19:03;;;;;;;8.55;2.10;;;27.90;36.10;;;;;;5488078;26;20344;-75
2024/04/13 07:21:28;;;;;;;5.55;1.65;;;28.00;36.90;;;;;;5487842;26;20338;-76
2024/04/13 07:23:54;;;;;;;5.53;1.70;;;28.30;35.60;;;;;;5487694;26;20002;-76
2024/04/13 07:26:19;;;;;;;6.40;1.92;;;28.70;36.00;;;;;;5485809;26;20017;-75
2024/04/13 07:28:45;;;;;;;7.60;2.45;;;28.90;35.80;;;;;;5487541;26;20665;-74
2024/04/13 07:31:11;;;;;;;6.32;1.95;;;29.20;35.30;;;;;;5487350;26;19999;-75
2024/04/13 07:33:36;;;;;;;5.20;1.75;;;28.90;34.60;;;;;;5487400;26;20048;-75
2024/04/13 07:36:03;;;;;;;5.80;1.45;;;29.00;34.30;;;;;;5487581;26;19998;-76
2024/04/13 07:38:29;;;;;;;4.70;1.55;;;29.00;34.80;;;;;;5485512;26;19998;-75
2024/04/13 07:40:54;;;;;;;4.07;1.73;;;29.50;34.60;;;;;;5485434;26;20016;-76
2024/04/13 07:43:20;;;;;;;4.03;1.45;;;29.90;33.50;;;;;;5487509;26;19998;-75
2024/04/13 07:45:49;;;;;;;6.10;2.40;;;30.40;32.00;;;;;;5487316;26;20039;-73
2024/04/13 07:48:15;;;;;;;7.38;1.48;;;30.60;31.50;;;;;;5487376;26;20425;-75
2024/04/13 07:50:42;;;;;;;3.55;1.52;;;30.90;31.80;;;;;;5487322;26;20042;-75
2024/04/13 07:53:08;;;;;;;3.60;1.30;;;31.20;31.50;;;;;;5484425;26;20364;-73
2024/04/13 07:55:33;;;;;;;3.60;1.38;;;31.60;31.40;;;;;;5486619;26;19998;-73
2024/04/13 07:57:59;;;;;;;6.85;1.70;;;31.90;31.50;;;;;;5487467;26;20002;-73
2024/04/13 08:00:25;;;;;;;6.20;1.35;;;32.50;31.20;;;;;;5485525;26;20059;-73
2024/04/13 08:02:50;;;;;;;3.80;1.40;;;32.90;29.80;;;;;;5485413;26;19998;-75
2024/04/13 08:05:16;;;;;;;7.65;2.33;;;33.20;28.90;;;;;;5487405;26;19998;-75
2024/04/13 08:07:42;;;;;;;6.18;2.40;;;33.40;28.80;;;;;;5487405;26;20053;-76
2024/04/13 08:10:07;;;;;;;3.85;1.63;;;33.60;28.60;;;;;;5485401;26;19998;-75
2024/04/13 08:12:33;;;;;;;7.53;1.50;;;34.10;27.90;;;;;;5487107;26;20002;-76
2024/04/13 08:14:59;;;;;;;12.15;1.45;;;34.60;28.20;;;;;;5486834;26;20002;-75
2024/04/13 08:17:27;;;;;;;4.55;1.58;;;34.90;27.20;;;;;;5485019;26;20041;-76
2024/04/13 08:19:56;;;;;;;3.45;1.52;;;35.20;26.40;;;;;;5487401;26;20432;-75
2024/04/13 08:22:22;;;;;;;4.25;1.40;;;35.20;25.60;;;;;;5487010;26;20002;-75
2024/04/13 08:24:49;;;;;;;3.60;1.23;;;34.90;24.90;;;;;;5486826;26;19998;-75
2024/04/13 08:27:15;;;;;;;4.13;1.58;;;34.80;25.50;;;;;;5486737;26;20448;-76
2024/04/13 08:29:40;;;;;;;7.20;1.50;;;34.90;24.80;;;;;;5486666;26;19999;-76
2024/04/13 08:32:06;;;;;;;6.38;1.65;;;35.10;25.70;;;;;;5484375;26;20760;-75
2024/04/13 08:34:32;;;;;;;3.67;1.20;;;35.50;25.40;;;;;;5485145;26;20008;-75
2024/04/13 08:36:58;;;;;;;2.80;1.42;;;35.70;24.80;;;;;;5486937;26;20002;-75
2024/04/13 08:39:24;;;;;;;4.57;1.40;;;35.80;24.60;;;;;;5484827;26;20017;-75
2024/04/13 08:41:56;;;;;;;3.08;0.80;;;35.90;24.80;;;;;;5484942;26;20003;-77
2024/04/13 08:44:22;;;;;;;3.17;1.40;;;35.70;24.50;;;;;;5484995;26;20075;-76
2024/04/13 08:46:50;;;;;;;15.10;1.83;;;35.40;24.80;;;;;;5486551;26;20002;-76
2024/04/13 08:49:18;;;;;;;7.63;1.70;;;35.40;25.10;;;;;;5486607;26;20010;-75
2024/04/13 08:51:47;;;;;;;3.55;1.30;;;35.20;24.50;;;;;;5486515;26;20439;-75
2024/04/13 08:54:13;;;;;;;6.10;1.00;;;34.90;25.20;;;;;;5486445;26;20002;-75
2024/04/13 08:56:41;;;;;;;4.20;1.58;;;34.80;25.50;;;;;;5486428;26;19998;-75
2024/04/13 08:59:09;;;;;;;5.40;1.20;;;34.80;25.50;;;;;;5484472;26;19998;-75
2024/04/13 09:01:37;;;;;;;3.90;1.20;;;34.50;25.60;;;;;;5484415;26;19998;-76
2024/04/13 09:04:03;;;;;;;1.35;0.75;;;34.20;26.50;;;;;;5484402;26;20468;-74
2024/04/13 09:06:28;;;;;;;3.85;1.00;;;33.90;27.00;;;;;;5483918;26;20070;-76
2024/04/13 09:08:55;;;;;;;3.08;1.17;;;33.70;26.80;;;;;;5486165;26;20078;-74
2024/04/13 09:11:22;;;;;;;2.65;0.70;;;33.60;27.00;;;;;;5484148;26;20013;-76
2024/04/13 09:13:51;;;;;;;7.38;1.45;;;33.50;26.30;;;;;;5486275;26;20002;-75
2024/04/13 09:16:17;;;;;;;6.15;0.98;;;33.20;26.80;;;;;;5486415;26;19998;-76
2024/04/13 09:18:44;;;;;;;3.10;0.95;;;33.30;26.90;;;;;;5486082;26;19998;-74
2024/04/13 09:21:11;;;;;;;4.03;1.10;;;33.40;26.70;;;;;;5484203;26;20010;-75
2024/04/13 09:23:37;;;;;;;2.97;0.88;;;33.30;27.10;;;;;;5484187;26;20009;-75
2024/04/13 09:26:07;;;;;;;3.90;1.10;;;33.20;27.40;;;;;;5483830;26;20319;-75
2024/04/13 09:28:46;;;;;;;8.50;1.02;;;33.30;26.80;;;;;;5485987;26;20100;-74
2024/04/13 09:31:13;;;;;;;3.35;1.00;;;33.40;25.70;;;;;;5483696;26;20405;-75
2024/04/13 09:33:40;;;;;;;3.65;0.90;;;33.20;25.80;;;;;;5484062;26;20091;-76
2024/04/13 09:36:08;;;;;;;8.93;1.08;;;33.20;26.30;;;;;;5478204;26;20006;-75
2024/04/13 09:38:35;;;;;;;5.85;1.13;;;33.00;25.80;;;;;;5485898;26;20029;-76
2024/04/13 09:41:02;;;;;;;4.78;1.20;;;32.90;26.10;;;;;;5485703;26;20576;-74
2024/04/13 09:43:28;;;;;;;2.60;1.00;;;33.10;25.70;;;;;;5483623;26;20009;-75
2024/04/13 09:46:04;;;;;;;1.98;0.80;;;33.10;25.30;;;;;;5485308;26;20490;-76
2024/04/13 09:48:30;;;;;;;3.83;0.77;;;32.90;25.70;;;;;;5485273;26;20443;-76
2024/04/13 09:50:56;;;;;;;2.42;0.70;;;32.70;24.90;;;;;;5485144;26;20017;-75
2024/04/13 09:53:21;;;;;;;2.45;0.68;;;33.00;24.30;;;;;;5485614;26;20010;-75
2024/04/13 09:55:47;;;;;;;3.33;1.10;;;32.80;24.40;;;;;;5484936;26;20016;-75
2024/04/13 09:58:14;;;;;;;1.20;0.60;;;33.00;24.70;;;;;;5485145;26;19999;-74
2024/04/13 10:00:41;;;;;;;1.60;0.60;;;32.90;25.00;;;;;;5483902;26;20038;-75
2024/04/13 10:03:06;;;;;;;2.72;0.70;;;33.10;24.50;;;;;;5485121;26;20348;-75
2024/04/13 10:05:36;;;;;;;2.10;0.93;;;33.00;25.10;;;;;;5483330;26;20002;-75
2024/04/13 10:08:10;;;;;;;6.32;0.88;;;32.90;25.30;;;;;;5485407;26;20074;-75
2024/04/13 10:10:45;;;;;;;6.88;0.90;;;33.00;26.40;;;;;;5483505;26;19994;-75
2024/04/13 10:13:15;;;;;;;1.90;0.60;;;32.90;25.70;;;;;;5485216;26;20507;-76
2024/04/13 10:15:42;;;;;;;5.82;1.45;;;33.00;26.10;;;;;;5482666;26;20454;-75
2024/04/13 10:18:09;;;;;;;3.13;0.82;;;33.20;26.30;;;;;;5488053;26;20450;-73
2024/04/13 10:20:39;;;;;;;6.38;1.00;;;33.30;26.40;;;;;;5487271;26;19999;-72
2024/04/13 10:23:10;;;;;;;1.38;0.60;;;33.30;26.50;;;;;;5486746;26;20030;-73
2024/04/13 10:25:36;;;;;;;4.93;0.80;;;33.10;26.80;;;;;;5488554;26;19998;-73
2024/04/13 10:28:20;;;;;;;2.47;0.80;;;32.40;26.90;;;;;;5486289;26;20002;-72
2024/04/13 10:30:52;;;;;;;3.20;0.70;;;32.30;27.10;;;;;;5488501;26;20331;-74
2024/04/13 10:33:28;;;;;;;5.97;0.70;;;32.00;27.60;;;;;;5486266;26;20006;-75
2024/04/13 10:36:02;;;;;;;2.15;0.90;;;31.40;27.70;;;;;;5486656;26;20013;-75
2024/04/13 10:38:31;;;;;;;2.38;0.82;;;30.80;28.70;;;;;;5480847;26;19998;-75
2024/04/13 10:40:58;;;;;;;2.33;0.45;;;30.10;29.10;;;;;;5486520;26;20038;-75
2024/04/13 10:43:24;;;;;;;2.90;0.80;;;29.50;27.20;;;;;;5488175;26;20035;-75
2024/04/13 10:45:58;;;;;;;2.40;0.60;;;29.00;29.80;;;;;;5488214;26;20002;-72
2024/04/13 10:48:26;;;;;;;1.02;0.50;;;28.70;29.90;;;;;;5487822;26;20693;-75
2024/04/13 10:50:56;;;;;;;0.88;0.40;;;28.30;30.00;;;;;;5488340;26;20077;-73
2024/04/13 10:53:25;;;;;;;1.67;0.70;;;28.10;30.80;;;;;;5486827;26;20529;-72
2024/04/13 10:55:52;;;;;;;2.50;0.68;;;27.90;32.00;;;;;;5486647;26;19999;-72
2024/04/13 10:58:19;;;;;;;3.80;0.70;;;27.70;33.40;;;;;;5487847;26;20013;-73
2024/04/13 11:00:49;;;;;;;3.17;0.80;;;27.50;33.40;;;;;;5488228;26;20002;-73
2024/04/13 11:03:16;;;;;;;5.15;0.65;;;27.40;33.20;;;;;;5488322;26;19998;-73
2024/04/13 11:05:45;;;;;;;2.63;0.65;;;27.40;33.00;;;;;;5486070;26;19998;-73
2024/04/13 11:08:12;;;;;;;2.72;0.75;;;27.30;33.70;;;;;;5486128;26;19995;-73
2024/04/13 11:10:40;;;;;;;5.70;0.68;;;27.20;33.20;;;;;;5487744;26;20009;-75
2024/04/13 11:13:06;;;;;;;4.43;0.63;;;27.10;33.20;;;;;;5487943;26;20012;-74
2024/04/13 11:15:35;;;;;;;2.75;0.85;;;27.00;32.80;;;;;;5485894;26;20002;-74
2024/04/13 11:18:02;;;;;;;2.20;0.50;;;26.90;33.70;;;;;;5488133;26;20435;-74
2024/04/13 11:20:29;;;;;;;4.13;0.50;;;26.90;33.60;;;;;;5486009;26;19994;-74
2024/04/13 11:22:56;;;;;;;1.35;0.50;;;26.90;33.80;;;;;;5486048;26;20010;-75
2024/04/13 11:25:24;;;;;;;4.88;1.00;;;26.90;33.40;;;;;;5485675;26;20473;-75
2024/04/13 11:27:50;;;;;;;1.77;0.45;;;26.80;33.30;;;;;;5485904;26;20378;-75
2024/04/13 11:30:18;;;;;;;3.80;0.60;;;26.70;34.00;;;;;;5485884;26;20478;-75
2024/04/13 11:32:44;;;;;;;4.25;1.13;;;26.60;33.30;;;;;;5487953;26;20017;-75
2024/04/13 11:35:14;;;;;;;1.10;0.50;;;26.50;33.20;;;;;;5487638;26;20024;-75
2024/04/13 11:37:39;;;;;;;2.00;0.55;;;26.40;33.70;;;;;;5487607;26;20006;-75
2024/04/13 11:40:12;;;;;;;4.93;0.63;;;26.30;34.00;;;;;;5478332;26;20008;-74
2024/04/13 11:42:39;;;;;;;7.63;1.50;;;26.30;34.20;;;;;;5487496;26;20002;-75
2024/04/13 11:45:06;;;;;;;4.30;0.73;;;26.20;34.40;;;;;;5485555;26;19999;-74
2024/04/13 11:47:32;;;;;;;4.93;1.70;;;26.20;33.90;;;;;;5487291;26;20030;-75
2024/04/13 11:50:00;;;;;;;4.30;0.60;;;26.20;34.80;;;;;;5485415;26;20002;-74
2024/04/13 11:52:26;;;;;;;3.90;1.13;;;26.30;34.70;;;;;;5487527;26;20036;-75
2024/04/13 11:54:52;;;;;;;5.68;0.50;;;26.50;33.70;;;;;;5485627;26;20016;-74
2024/04/13 11:57:19;;;;;;;3.97;0.52;;;26.40;33.50;;;;;;5487425;26;20467;-75
2024/04/13 11:59:45;;;;;;;3.75;0.88;;;26.40;32.90;;;;;;5487186;26;20451;-75
2024/04/13 12:02:11;;;;;;;10.07;0.70;;;26.40;33.00;;;;;;5487115;26;20006;-75
2024/04/13 12:04:40;;;;;;;7.63;0.60;;;26.30;32.90;;;;;;5485533;26;20002;-75
2024/04/13 12:07:11;;;;;;;7.20;0.50;;;26.30;33.50;;;;;;5485106;26;20039;-75
2024/04/13 12:09:38;;;;;;;2.92;0.85;;;26.30;33.20;;;;;;5487222;26;20034;-75
2024/04/13 12:12:06;;;;;;;2.90;0.60;;;26.30;34.40;;;;;;5486769;26;20393;-76
2024/04/13 12:14:32;;;;;;;4.25;0.82;;;26.40;34.00;;;;;;5487198;26;20451;-75
2024/04/13 12:16:58;;;;;;;3.63;0.50;;;26.30;33.30;;;;;;5484916;26;19998;-74
2024/04/13 12:19:24;;;;;;;4.82;1.05;;;26.30;33.90;;;;;;5486566;26;20462;-75
2024/04/13 12:21:49;;;;;;;6.43;1.25;;;26.30;33.50;;;;;;5484988;26;20562;-74
2024/04/13 12:24:15;;;;;;;7.25;1.05;;;26.30;33.30;;;;;;5484913;26;19998;-74
2024/04/13 12:26:41;;;;;;;3.17;0.80;;;26.30;33.40;;;;;;5486630;26;20359;-74
2024/04/13 12:29:07;;;;;;;1.85;0.55;;;26.30;34.20;;;;;;5486886;26;20325;-75
2024/04/13 12:31:32;;;;;;;2.50;0.68;;;26.30;34.10;;;;;;5484912;26;19998;-75
2024/04/13 12:33:58;;;;;;;4.15;0.85;;;26.40;33.20;;;;;;5487013;26;20006;-74
2024/04/13 12:36:24;;;;;;;4.72;0.70;;;26.30;34.20;;;;;;5486397;26;20336;-74
2024/04/13 12:38:50;;;;;;;3.75;0.80;;;26.40;33.80;;;;;;5486569;26;20342;-75
2024/04/13 12:41:16;;;;;;;3.80;0.60;;;26.40;33.80;;;;;;5484225;26;20090;-75
2024/04/13 12:43:44;;;;;;;4.25;1.13;;;26.30;34.10;;;;;;5485018;26;20179;-75
2024/04/13 12:46:10;;;;;;;2.80;0.55;;;26.30;33.50;;;;;;5487267;26;20467;-75
2024/04/13 12:48:36;;;;;;;4.32;0.98;;;26.30;33.10;;;;;;5486787;26;20010;-75
2024/04/13 12:51:03;;;;;;;2.92;1.15;;;26.30;33.10;;;;;;5484491;26;20017;-74